Freeport, IL

12:07 AM CST del 04 Dicembre 2016 (GMT -0600)
Albertus | | Change Station
Avvisi attivi: Winter Weather Advisory

Alt. 860 ft 42.25 °N, 89.58 °W | Updated 12 minutes ago

Overcast
Coperto
32 °F
Sembra 26 °F
N
6
Vento Variabile Vento da Sud

Oggi
Massima -- | Minima -- °F
--% Possibilità di precip.
Ieri
Massima -- | Minima -- °F
Precip. -- in
Pressione 30.26 in
Visibilità 10.0 miglia
Nuvole Coperto 6000 ft
Raffreddamento del vento 26 °F
Punto di rugiada 29 °F
Umidità 87%
Piovosità 0.00 in
Spessore del manto nevoso Non disponibile.
7:11 AM 4:26 PM
Luna crescente, 20% visible
METAR KFEP 040555Z AUTO 17005KT 10SM OVC060 00/M02 A3026 RMK AO2 T00001019 10001 21005 400141010
Pressione 30.26 in
Visibilità 10.0 miglia
Nuvole Coperto 6000 ft
Raffreddamento del vento 26 °F
Punto di rugiada 29 °F
Umidità 87%
Piovosità 0.00 in
Spessore del manto nevoso Non disponibile.
7:11 AM 4:26 PM
Luna crescente, 20% visible
METAR KFEP 040555Z AUTO 17005KT 10SM OVC060 00/M02 A3026 RMK AO2 T00001019 10001 21005 400141010

10-Day Weather Forecast

Almanac

Astronomia

Dec. 04, 2016 Alba Tramonto
Ora attuale
Crepuscolo civile
Crepuscolo nautico
Crepuscolo astronomico
Luna
Estensione della luce visibile
Lunghezza del giorno
Tomorrow will be .
, % of the Moon is Illuminated

Gli estremi di oggi

State Highs State Lows

Community

WunderPhotos

Upload Photos

1,955,587 foto caricate!

WunderBlog® & News

Nearby

Qualità dell'aria

  Qualità dell'aria Indice AQ Inquinante
Not available.

Profondità neve

Stazione Profondità Altitudine

Attività sismica

Città  Distanza Mag. Data & Ora
Minimo Magnitudo Mostrato è 2.5.

Temperature delle acque costiere

Località Temperatura

Stations

Stazioni meteo nelle vicinanze

Ubicazione della stazione Temp. Raffreddamento del vento Punto di rugiada Umidità Vento Precip. Alt. Aggiornato Tipo
                   

Watches & Warnings

Winter Weather Advisory
Issued: 20:20 CST Dec. 3, 2016 – National Weather Service

... Winter Weather Advisory remains in effect from 2 am to 3 PM
CST Sunday...

* timing... snow will begin between 3 am and 6 am... and continue
through at least mid afternoon Sunday. The heaviest snowfall is
expected between 9 am and 2 PM.

* Snow accumulations... 2 to 4 inches.

* Impacts... accumulating wet snow may lead to hazardous travel
conditions. Roadways may be slick at times due to slushy snow
and visibilties will be less than one mile at times.

Precautionary/preparedness actions...

A Winter Weather Advisory for snow means that periods of snow
will cause primarily travel difficulties. Be prepared for snow
covered roads and limited visibilities... and use caution while
driving.



Sheets